ZSMUL FZEA-FCOI

Flight info

Callsign ZSMUL
Flight time 0h 59m
Altitude 12000
Route DESE1A VONIP
Aircraft DC6/M-SDFGRWY/S

Departure

Time 2026-05-06 05:57
Airport Mbandaka Airport (FZEA)

Arrival

Time 2026-05-06 06:57
Airport Impfondo Airport (FCOI)
Time Latitude Longitude Altitude Speed Heading
2026-05-06 05:39 0.02105 18.29033 1039 ft 0 kts 263°
2026-05-06 05:50 0.02105 18.29031 1039 ft 0 kts 270°
2026-05-06 05:50 0.02106 18.29030 1039 ft 0 kts 287°
2026-05-06 05:50 0.02106 18.29029 1042 ft 0 kts 291°
2026-05-06 05:50 0.02107 18.29026 1042 ft 1 kts 297°
2026-05-06 05:51 0.02110 18.29022 1037 ft 1 kts 307°
2026-05-06 05:51 0.02116 18.29014 1039 ft 2 kts 305°
2026-05-06 05:51 0.02124 18.28999 1044 ft 3 kts 288°
2026-05-06 05:51 0.02128 18.28968 1043 ft 6 kts 270°
2026-05-06 05:52 0.02126 18.28928 1044 ft 2 kts 265°
2026-05-06 05:52 0.02124 18.28920 1042 ft 3 kts 258°
2026-05-06 05:52 0.02109 18.28900 1042 ft 5 kts 204°
2026-05-06 05:52 0.02064 18.28898 1042 ft 8 kts 173°
2026-05-06 05:53 0.02002 18.28905 1040 ft 10 kts 173°
2026-05-06 05:53 0.01921 18.28914 1039 ft 13 kts 172°
2026-05-06 05:53 0.01817 18.28927 1037 ft 16 kts 173°
2026-05-06 05:53 0.01712 18.28940 1034 ft 14 kts 174°
2026-05-06 05:54 0.01623 18.28951 1033 ft 13 kts 173°
2026-05-06 05:54 0.01516 18.28963 1031 ft 18 kts 173°
2026-05-06 05:54 0.01371 18.28973 1029 ft 22 kts 181°
2026-05-06 05:54 0.01287 18.28984 1029 ft 2 kts 89°
2026-05-06 05:55 0.01288 18.28988 1029 ft 1 kts 44°
2026-05-06 05:55 0.01293 18.28990 1029 ft 1 kts 358°
2026-05-06 05:55 0.01312 18.28987 1031 ft 8 kts 351°
2026-05-06 05:55 0.01491 18.28965 1031 ft 45 kts 353°
2026-05-06 05:56 0.01922 18.28914 1040 ft 80 kts 353°
2026-05-06 05:56 0.02579 18.28836 1049 ft 109 kts 353°
2026-05-06 05:56 0.03388 18.28740 1112 ft 123 kts 352°
2026-05-06 05:56 0.04281 18.28625 1184 ft 135 kts 351°
2026-05-06 05:57 0.05230 18.28505 1318 ft 143 kts 353°
2026-05-06 05:57 0.06246 18.28426 1456 ft 151 kts 355°
2026-05-06 05:57 0.07337 18.28333 1602 ft 159 kts 352°
2026-05-06 05:57 0.08420 18.28123 1804 ft 162 kts 347°
2026-05-06 05:58 0.09541 18.27932 2013 ft 165 kts 352°
2026-05-06 05:58 0.10693 18.27800 2205 ft 168 kts 354°
2026-05-06 05:58 0.11865 18.27703 2347 ft 169 kts 355°
2026-05-06 05:58 0.13040 18.27620 2512 ft 170 kts 356°
2026-05-06 05:59 0.14223 18.27516 2671 ft 171 kts 354°
2026-05-06 05:59 0.15398 18.27374 2764 ft 174 kts 350°
2026-05-06 05:59 0.16612 18.27182 2879 ft 178 kts 352°
2026-05-06 05:59 0.17847 18.27281 3011 ft 179 kts 18°
2026-05-06 06:00 0.18883 18.27930 3134 ft 178 kts 40°
2026-05-06 06:00 0.19864 18.28692 3312 ft 177 kts 35°
2026-05-06 06:00 0.20871 18.29392 3467 ft 176 kts 37°
2026-05-06 06:00 0.21861 18.30127 3637 ft 177 kts 36°
2026-05-06 06:01 0.22900 18.30754 3793 ft 177 kts 28°
2026-05-06 06:01 0.23983 18.31344 3949 ft 177 kts 30°
2026-05-06 06:01 0.25057 18.31965 4108 ft 178 kts 30°
2026-05-06 06:01 0.26139 18.32582 4272 ft 178 kts 30°
2026-05-06 06:02 0.27211 18.33195 4433 ft 179 kts 30°
2026-05-06 06:02 0.28294 18.33815 4604 ft 179 kts 30°
2026-05-06 06:02 0.29375 18.34432 4771 ft 179 kts 30°
2026-05-06 06:02 0.30458 18.35051 4921 ft 179 kts 30°
2026-05-06 06:03 0.31541 18.35670 5080 ft 179 kts 30°
2026-05-06 06:03 0.32608 18.36279 5226 ft 179 kts 30°
2026-05-06 06:03 0.33692 18.36899 5378 ft 179 kts 30°
2026-05-06 06:03 0.34773 18.37517 5524 ft 178 kts 30°
2026-05-06 06:04 0.35840 18.38127 5664 ft 178 kts 30°
2026-05-06 06:04 0.36918 18.38743 5799 ft 178 kts 30°
2026-05-06 06:04 0.37993 18.39357 5939 ft 178 kts 31°
2026-05-06 06:04 0.39068 18.39973 6079 ft 178 kts 31°
2026-05-06 06:05 0.40139 18.40583 6236 ft 179 kts 31°
2026-05-06 06:05 0.41225 18.41205 6396 ft 179 kts 31°
2026-05-06 06:05 0.42310 18.41824 6540 ft 179 kts 31°
2026-05-06 06:05 0.43399 18.42447 6694 ft 179 kts 32°
2026-05-06 06:06 0.44470 18.43060 6838 ft 179 kts 32°
2026-05-06 06:06 0.45555 18.43681 6983 ft 179 kts 32°
2026-05-06 06:06 0.46626 18.44291 7126 ft 178 kts 32°
2026-05-06 06:06 0.47700 18.44906 7269 ft 177 kts 32°
2026-05-06 06:07 0.48771 18.45516 7423 ft 177 kts 32°
2026-05-06 06:07 0.49840 18.46129 7559 ft 176 kts 33°
2026-05-06 06:07 0.50892 18.46730 7693 ft 175 kts 33°
2026-05-06 06:07 0.51952 18.47336 7834 ft 175 kts 33°
2026-05-06 06:08 0.53010 18.47941 7968 ft 174 kts 33°
2026-05-06 06:08 0.54055 18.48538 8109 ft 175 kts 33°
2026-05-06 06:08 0.55115 18.49143 8262 ft 175 kts 33°
2026-05-06 06:08 0.56173 18.49748 8418 ft 175 kts 33°
2026-05-06 06:09 0.57217 18.50344 8569 ft 174 kts 33°
2026-05-06 06:09 0.58268 18.50946 8722 ft 174 kts 34°
2026-05-06 06:09 0.59318 18.51546 8871 ft 173 kts 34°
2026-05-06 06:09 0.60367 18.52146 9017 ft 173 kts 34°
2026-05-06 06:10 0.61400 18.52735 9156 ft 172 kts 34°
2026-05-06 06:10 0.62443 18.53333 9302 ft 172 kts 34°
2026-05-06 06:10 0.63471 18.53919 9460 ft 172 kts 34°
2026-05-06 06:10 0.64510 18.54514 9601 ft 172 kts 35°
2026-05-06 06:11 0.65550 18.55107 9757 ft 171 kts 35°
2026-05-06 06:11 0.66572 18.55693 9895 ft 171 kts 35°
2026-05-06 06:11 0.67606 18.56283 10023 ft 171 kts 35°
2026-05-06 06:11 0.68637 18.56874 10150 ft 170 kts 35°
2026-05-06 06:12 0.69662 18.57458 10266 ft 171 kts 35°
2026-05-06 06:12 0.70698 18.58052 10402 ft 171 kts 35°
2026-05-06 06:12 0.71736 18.58645 10518 ft 172 kts 35°
2026-05-06 06:12 0.72775 18.59238 10651 ft 172 kts 35°
2026-05-06 06:13 0.73815 18.59834 10772 ft 173 kts 34°
2026-05-06 06:13 0.74859 18.60430 10846 ft 177 kts 34°
2026-05-06 06:13 0.75934 18.61045 10947 ft 179 kts 34°
2026-05-06 06:13 0.77022 18.61668 11048 ft 181 kts 34°
2026-05-06 06:14 0.78121 18.62295 11163 ft 182 kts 34°
2026-05-06 06:14 0.79214 18.62919 11274 ft 183 kts 34°
2026-05-06 06:14 0.80435 18.63348 11327 ft 192 kts 10°
2026-05-06 06:14 0.81765 18.63097 11394 ft 205 kts 340°
2026-05-06 06:15 0.82895 18.62184 11491 ft 212 kts 315°
2026-05-06 06:15 0.83936 18.61158 11622 ft 208 kts 326°
2026-05-06 06:15 0.85083 18.60318 11755 ft 206 kts 330°
2026-05-06 06:15 0.86244 18.59470 11904 ft 207 kts 328°
2026-05-06 06:16 0.87405 18.58599 11975 ft 211 kts 328°
2026-05-06 06:16 0.88188 18.58015 11977 ft 212 kts 328°
2026-05-06 06:16 0.89754 18.56843 11978 ft 212 kts 328°
2026-05-06 06:16 0.90539 18.56257 11980 ft 212 kts 328°
2026-05-06 06:17 0.91730 18.55366 11983 ft 213 kts 328°
2026-05-06 06:17 0.92920 18.54479 11985 ft 214 kts 328°
2026-05-06 06:17 0.94113 18.53586 11984 ft 214 kts 328°
2026-05-06 06:17 0.95311 18.52692 11984 ft 215 kts 328°
2026-05-06 06:18 0.96495 18.51806 11983 ft 215 kts 328°
2026-05-06 06:18 0.97703 18.50905 11986 ft 216 kts 328°
2026-05-06 06:18 0.98899 18.50010 11985 ft 216 kts 328°
2026-05-06 06:18 1.00110 18.49107 11986 ft 217 kts 328°
2026-05-06 06:19 1.01321 18.48201 11983 ft 217 kts 328°
2026-05-06 06:19 1.02535 18.47295 11982 ft 218 kts 328°
2026-05-06 06:19 1.03754 18.46383 11983 ft 219 kts 328°
2026-05-06 06:19 1.04979 18.45469 11984 ft 221 kts 328°
2026-05-06 06:20 1.06215 18.44546 11987 ft 221 kts 328°
2026-05-06 06:20 1.07436 18.43632 11985 ft 222 kts 328°
2026-05-06 06:20 1.08678 18.42705 11993 ft 222 kts 328°
2026-05-06 06:20 1.09921 18.41776 11987 ft 223 kts 328°
2026-05-06 06:21 1.11151 18.40857 11979 ft 223 kts 328°
2026-05-06 06:21 1.12402 18.39921 11984 ft 223 kts 328°
2026-05-06 06:21 1.13648 18.38992 11982 ft 223 kts 328°
2026-05-06 06:21 1.14877 18.38072 11990 ft 223 kts 328°
2026-05-06 06:22 1.16129 18.37138 11988 ft 223 kts 328°
2026-05-06 06:22 1.17379 18.36203 11985 ft 224 kts 328°
2026-05-06 06:22 1.18609 18.35284 11985 ft 224 kts 328°
2026-05-06 06:22 1.19856 18.34352 11986 ft 224 kts 328°
2026-05-06 06:23 1.21102 18.33421 11991 ft 224 kts 329°
2026-05-06 06:23 1.22353 18.32487 11990 ft 224 kts 328°
2026-05-06 06:23 1.23589 18.31562 11987 ft 224 kts 328°
2026-05-06 06:23 1.24842 18.30627 11990 ft 224 kts 328°
2026-05-06 06:24 1.26095 18.29690 11989 ft 224 kts 328°
2026-05-06 06:24 1.27347 18.28755 11993 ft 224 kts 328°
2026-05-06 06:24 1.28598 18.27820 11992 ft 224 kts 329°
2026-05-06 06:24 1.29834 18.26896 11990 ft 224 kts 328°
2026-05-06 06:25 1.31086 18.25960 11986 ft 224 kts 329°
2026-05-06 06:25 1.32338 18.25025 11992 ft 224 kts 328°
2026-05-06 06:25 1.34833 18.23160 11989 ft 224 kts 328°
2026-05-06 06:26 1.36089 18.22221 11991 ft 224 kts 329°
2026-05-06 06:26 1.37324 18.21299 11991 ft 225 kts 329°
2026-05-06 06:26 1.38575 18.20363 11994 ft 225 kts 329°
2026-05-06 06:26 1.39831 18.19426 11993 ft 225 kts 329°
2026-05-06 06:27 1.41083 18.18489 11990 ft 225 kts 329°
2026-05-06 06:27 1.42326 18.17560 11990 ft 225 kts 329°
2026-05-06 06:27 1.43581 18.16622 11989 ft 225 kts 329°
2026-05-06 06:27 1.44840 18.15681 11990 ft 225 kts 329°
2026-05-06 06:28 1.46081 18.14753 11991 ft 225 kts 329°
2026-05-06 06:28 1.47336 18.13815 11991 ft 225 kts 329°
2026-05-06 06:28 1.48594 18.12874 11994 ft 225 kts 329°
2026-05-06 06:28 1.49851 18.11935 11990 ft 225 kts 329°
2026-05-06 06:29 1.51093 18.11008 11996 ft 225 kts 329°
2026-05-06 06:29 1.52349 18.10067 11992 ft 225 kts 329°
2026-05-06 06:29 1.53603 18.09130 11992 ft 225 kts 329°
2026-05-06 06:29 1.54861 18.08192 11993 ft 225 kts 329°
2026-05-06 06:30 1.56116 18.07252 11991 ft 225 kts 329°
2026-05-06 06:30 1.57358 18.06325 11991 ft 225 kts 329°
2026-05-06 06:30 1.58614 18.05384 11992 ft 225 kts 329°
2026-05-06 06:30 1.59869 18.04447 11990 ft 225 kts 329°
2026-05-06 06:31 1.61128 18.03505 11989 ft 225 kts 329°
2026-05-06 06:31 1.62384 18.02567 11991 ft 225 kts 329°
2026-05-06 06:31 1.63633 18.01633 11994 ft 225 kts 329°
2026-05-06 06:31 1.64893 18.00691 11991 ft 225 kts 329°
2026-05-06 06:32 1.66153 17.99749 11991 ft 225 kts 329°
2026-05-06 06:32 1.67394 17.98820 11991 ft 225 kts 329°
2026-05-06 06:32 1.68653 17.97880 11990 ft 225 kts 329°
2026-05-06 06:32 1.69911 17.96939 11992 ft 226 kts 329°
2026-05-06 06:33 1.71175 17.95995 11995 ft 226 kts 329°
2026-05-06 06:33 1.72418 17.95064 11993 ft 225 kts 329°
2026-05-06 06:33 1.73678 17.94123 11994 ft 225 kts 329°
2026-05-06 06:33 1.74936 17.93181 11994 ft 225 kts 329°
2026-05-06 06:34 1.76195 17.92241 11993 ft 225 kts 329°
2026-05-06 06:34 1.77434 17.91314 11992 ft 225 kts 329°
2026-05-06 06:34 1.78688 17.90377 11992 ft 225 kts 329°
2026-05-06 06:34 1.79945 17.89436 11992 ft 225 kts 329°
2026-05-06 06:35 1.81208 17.88493 11991 ft 225 kts 329°
2026-05-06 06:35 1.82461 17.87555 11990 ft 225 kts 329°
2026-05-06 06:35 1.83704 17.86626 11992 ft 225 kts 329°
2026-05-06 06:35 1.84951 17.85694 11990 ft 225 kts 329°
2026-05-06 06:36 1.86207 17.84754 11989 ft 225 kts 329°
2026-05-06 06:36 1.87459 17.83817 11989 ft 225 kts 329°
2026-05-06 06:36 1.88716 17.82878 11990 ft 225 kts 329°
2026-05-06 06:36 1.89969 17.81940 11991 ft 225 kts 329°
2026-05-06 06:37 1.91214 17.81010 11990 ft 225 kts 329°
2026-05-06 06:37 1.92472 17.80068 11990 ft 225 kts 329°
2026-05-06 06:37 1.93726 17.79130 11989 ft 225 kts 329°
2026-05-06 06:37 1.94983 17.78190 11988 ft 225 kts 329°
2026-05-06 06:38 1.96241 17.77250 11992 ft 225 kts 329°
2026-05-06 06:38 1.97486 17.76318 11990 ft 225 kts 329°
2026-05-06 06:38 1.98743 17.75378 11992 ft 225 kts 329°
2026-05-06 06:38 2.00003 17.74435 11992 ft 225 kts 329°
2026-05-06 06:39 2.01250 17.73504 11990 ft 226 kts 329°
2026-05-06 06:39 2.02507 17.72563 11993 ft 226 kts 329°
2026-05-06 06:39 2.03764 17.71623 11992 ft 226 kts 329°
2026-05-06 06:39 2.05025 17.70679 11988 ft 226 kts 329°
2026-05-06 06:40 2.06284 17.69737 11992 ft 226 kts 329°
2026-05-06 06:40 2.07526 17.68809 11994 ft 226 kts 329°
2026-05-06 06:40 2.08787 17.67865 11995 ft 226 kts 329°
2026-05-06 06:40 2.10048 17.66920 11992 ft 226 kts 329°
2026-05-06 06:41 2.11296 17.65988 11994 ft 226 kts 329°
2026-05-06 06:41 2.12561 17.65042 11995 ft 226 kts 329°
2026-05-06 06:41 2.13824 17.64097 11993 ft 226 kts 329°
2026-05-06 06:41 2.15065 17.63168 11992 ft 226 kts 329°
2026-05-06 06:42 2.16330 17.62221 11994 ft 226 kts 329°
2026-05-06 06:42 2.17596 17.61275 11996 ft 226 kts 329°
2026-05-06 06:42 2.18841 17.60342 11995 ft 226 kts 329°
2026-05-06 06:42 2.20110 17.59395 11995 ft 226 kts 329°
2026-05-06 06:43 2.21376 17.58460 11975 ft 225 kts 332°
2026-05-06 06:43 2.22819 17.57896 11589 ft 228 kts 358°
2026-05-06 06:43 2.24385 17.58032 11258 ft 227 kts 22°
2026-05-06 06:43 2.25725 17.58842 10976 ft 226 kts 47°
2026-05-06 06:44 2.26565 17.60141 10696 ft 227 kts 70°
2026-05-06 06:44 2.26763 17.61716 10430 ft 232 kts 94°
2026-05-06 06:44 2.26267 17.63248 10176 ft 239 kts 116°
2026-05-06 06:44 2.25180 17.64546 9930 ft 247 kts 136°
2026-05-06 06:45 2.23670 17.65388 9696 ft 254 kts 152°
2026-05-06 06:45 2.22064 17.66120 9469 ft 252 kts 148°
2026-05-06 06:45 2.20559 17.67012 9234 ft 250 kts 142°
2026-05-06 06:45 2.19102 17.67968 9006 ft 251 kts 143°
2026-05-06 06:46 2.17635 17.68884 8791 ft 252 kts 144°
2026-05-06 06:46 2.16138 17.69798 8576 ft 252 kts 144°
2026-05-06 06:46 2.14642 17.70719 8361 ft 252 kts 144°
2026-05-06 06:46 2.13145 17.71647 8145 ft 253 kts 145°
2026-05-06 06:47 2.11645 17.72573 7934 ft 253 kts 145°
2026-05-06 06:47 2.10158 17.73492 7729 ft 253 kts 145°
2026-05-06 06:47 2.08654 17.74421 7528 ft 253 kts 146°
2026-05-06 06:47 2.07152 17.75349 7346 ft 253 kts 146°
2026-05-06 06:48 2.05653 17.76276 7156 ft 253 kts 146°
2026-05-06 06:48 2.04168 17.77193 6971 ft 253 kts 146°
2026-05-06 06:48 2.02674 17.78118 6789 ft 253 kts 146°
2026-05-06 06:48 2.01172 17.79044 6605 ft 253 kts 147°
2026-05-06 06:49 1.99668 17.79974 6424 ft 253 kts 147°
2026-05-06 06:49 1.98168 17.80899 6238 ft 253 kts 147°
2026-05-06 06:49 1.96689 17.81815 6054 ft 253 kts 147°
2026-05-06 06:49 1.95187 17.82742 5872 ft 253 kts 147°
2026-05-06 06:50 1.93678 17.83672 5702 ft 253 kts 147°
2026-05-06 06:50 1.92196 17.84589 5526 ft 253 kts 148°
2026-05-06 06:50 1.90689 17.85519 5348 ft 253 kts 148°
2026-05-06 06:50 1.89208 17.86437 5182 ft 253 kts 148°
2026-05-06 06:51 1.87702 17.87365 5014 ft 251 kts 148°
2026-05-06 06:51 1.86223 17.88279 4832 ft 248 kts 148°
2026-05-06 06:51 1.84778 17.89172 4644 ft 245 kts 149°
2026-05-06 06:51 1.83328 17.90067 4443 ft 243 kts 149°
2026-05-06 06:52 1.81892 17.90955 4246 ft 242 kts 149°
2026-05-06 06:52 1.80464 17.91836 4068 ft 240 kts 149°
2026-05-06 06:52 1.79043 17.92713 3880 ft 239 kts 149°
2026-05-06 06:52 1.77649 17.93578 3681 ft 238 kts 149°
2026-05-06 06:53 1.76237 17.94446 3495 ft 237 kts 149°
2026-05-06 06:53 1.74837 17.95309 3311 ft 236 kts 149°
2026-05-06 06:53 1.73459 17.96161 3097 ft 235 kts 149°
2026-05-06 06:53 1.72067 17.97023 2870 ft 234 kts 149°
2026-05-06 06:54 1.70678 17.97881 2671 ft 232 kts 149°
2026-05-06 06:54 1.69315 17.98721 2448 ft 229 kts 149°
2026-05-06 06:54 1.67966 17.99554 2220 ft 226 kts 149°
2026-05-06 06:54 1.66610 18.00142 2288 ft 206 kts 167°
2026-05-06 06:55 1.65246 18.00352 2353 ft 191 kts 175°
2026-05-06 06:55 1.63959 18.00479 2410 ft 179 kts 174°
2026-05-06 06:55 1.62769 18.00640 2418 ft 165 kts 172°
2026-05-06 06:55 1.61665 18.00823 2266 ft 159 kts 171°
2026-05-06 06:56 1.60615 18.01034 2098 ft 152 kts 167°
2026-05-06 06:56 1.59655 18.01434 1926 ft 141 kts 154°
2026-05-06 06:56 1.58926 18.02012 1662 ft 133 kts 126°
2026-05-06 06:56 1.58681 18.02883 1360 ft 134 kts 93°
2026-05-06 06:57 1.58804 18.03799 1079 ft 128 kts 81°
2026-05-06 06:57 1.58933 18.04569 1059 ft 90 kts 80°
2026-05-06 06:57 1.59003 18.04994 1055 ft 31 kts 80°
2026-05-06 06:57 1.59042 18.05069 1056 ft 8 kts 11°
2026-05-06 06:58 1.59075 18.05068 1056 ft 2 kts 352°
2026-05-06 06:58 1.59078 18.05067 1056 ft 1 kts 353°
2026-05-06 06:58 1.59100 18.05065 1058 ft 3 kts 356°
2026-05-06 06:58 1.59120 18.05064 1058 ft 4 kts 353°
2026-05-06 06:59 1.59150 18.05059 1060 ft 5 kts 351°
2026-05-06 06:59 1.59183 18.05059 1059 ft 3 kts 11°
2026-05-06 06:59 1.59199 18.05062 1060 ft 3 kts
2026-05-06 06:59 1.59222 18.05067 1060 ft 2 kts 23°
2026-05-06 07:00 1.59232 18.05072 1060 ft 2 kts 27°
2026-05-06 07:00 1.59237 18.05075 1060 ft 2 kts 27°
2026-05-06 07:00 1.59240 18.05076 1060 ft 0 kts 26°